ADDS TAF Data INFO
IDs: Format: Raw Decoded Include METARs

Data at: 0931 UTC 17 Aug 2018

KTLH 170531Z 1706/1806 31003KT P6SM SCT250
  FM171500 17007KT P6SM SCT030
  FM171800 20008KT P6SM VCTS BKN050CB
  FM180000 VRB04KT P6SM OVC250